Terminal Aerodrome Forecast
Issued by NWS Mt. Holly, NJ

Home | Current Version | Previous Version | Text Only | Print | Product List | Glossary On
Versions: 1 2 3 4 5 6 7 8 9 10 11 12 13 14 15 16 17
000
FTUS41 KPHI 272349
TAFTTN
TAF
KTTN 272349Z 2800/2824 21008KT P6SM VCSH FEW030 BKN070
      TEMPO 2800/2801 6SM -SHRA BKN030
     FM280100 20003KT P6SM FEW030 BKN100
      TEMPO 2809/2812 6SM BR BKN010
     FM281600 27006KT P6SM SCT035=

USA.gov is the U.S. government's official web portal to all federal, state and local government web resources and services.